createdAt,value
2022-12-08T00:00:35.985Z,11.67
2022-12-08T00:03:02.464Z,11.89
2022-12-08T00:05:28.889Z,11.05
2022-12-08T00:07:55.250Z,10.89
2022-12-08T00:10:47.717Z,10.63
2022-12-08T00:13:07.890Z,10.79
2022-12-08T00:15:34.207Z,10.61
2022-12-08T00:18:00.494Z,11.00
2022-12-08T00:20:26.808Z,11.07
2022-12-08T00:22:53.133Z,10.72
2022-12-08T00:25:19.428Z,10.22
2022-12-08T00:27:45.730Z,10.06
2022-12-08T00:30:12.071Z,9.84
2022-12-08T00:32:38.354Z,9.25
2022-12-08T00:35:05.081Z,9.54
2022-12-08T00:37:31.524Z,9.62
2022-12-08T00:39:57.821Z,9.62
2022-12-08T00:42:24.107Z,10.13
2022-12-08T00:44:50.426Z,11.01
2022-12-08T00:47:20.992Z,12.02
2022-12-08T00:49:49.799Z,11.88
2022-12-08T00:52:16.121Z,12.27
2022-12-08T00:54:42.416Z,12.38
2022-12-08T00:57:08.734Z,12.40
2022-12-08T00:59:35.063Z,11.65
2022-12-08T01:02:01.398Z,11.88
2022-12-08T01:04:27.695Z,12.01
2022-12-08T01:06:54.024Z,11.66
2022-12-08T01:09:20.324Z,11.51
2022-12-08T01:11:46.616Z,12.03
2022-12-08T01:14:12.935Z,11.49
2022-12-08T01:16:39.291Z,10.68
2022-12-08T01:19:05.632Z,10.64
2022-12-08T01:21:31.949Z,10.51
2022-12-08T01:23:58.241Z,10.65
2022-12-08T01:26:24.538Z,10.42
2022-12-08T01:28:50.860Z,10.09
2022-12-08T01:31:17.260Z,9.54
2022-12-08T01:33:43.625Z,10.14
2022-12-08T01:36:09.956Z,9.69
2022-12-08T01:38:36.232Z,9.61
2022-12-08T01:41:02.506Z,9.27
2022-12-08T01:43:28.809Z,9.19
2022-12-08T01:45:55.191Z,9.09
2022-12-08T01:48:21.565Z,8.47
2022-12-08T01:50:47.902Z,7.92
2022-12-08T01:53:14.192Z,8.30
2022-12-08T01:55:40.483Z,8.40
2022-12-08T01:58:06.794Z,7.66
2022-12-08T02:00:33.096Z,8.17
2022-12-08T02:02:59.453Z,8.68
2022-12-08T02:05:25.873Z,8.63
2022-12-08T02:07:52.182Z,9.14
2022-12-08T02:10:18.546Z,9.37
2022-12-08T02:12:44.853Z,9.57
2022-12-08T02:15:11.145Z,9.72
2022-12-08T02:17:37.446Z,10.95
2022-12-08T02:20:04.140Z,11.66
2022-12-08T02:22:30.618Z,11.62
2022-12-08T02:24:56.919Z,12.24
2022-12-08T02:27:23.255Z,12.66
2022-12-08T02:29:49.553Z,13.75
2022-12-08T02:32:15.853Z,14.38
2022-12-08T02:34:42.197Z,14.28
2022-12-08T02:37:08.493Z,14.30
2022-12-08T02:39:34.780Z,14.96
2022-12-08T02:42:01.167Z,15.26
2022-12-08T02:44:27.473Z,14.86
2022-12-08T02:46:53.763Z,15.08
2022-12-08T02:49:20.095Z,15.59
2022-12-08T02:51:46.395Z,15.28
2022-12-08T02:54:12.691Z,15.55
2022-12-08T02:56:39.030Z,15.17
2022-12-08T02:59:05.339Z,15.00
2022-12-08T03:01:31.770Z,14.92
2022-12-08T03:03:58.114Z,14.51
2022-12-08T03:06:24.422Z,14.44
2022-12-08T03:08:50.720Z,13.90
2022-12-08T03:11:17.047Z,13.67
2022-12-08T03:13:43.332Z,13.53
2022-12-08T03:16:09.788Z,13.12
2022-12-08T03:18:36.198Z,12.52
2022-12-08T03:21:02.490Z,12.58
2022-12-08T03:23:28.790Z,11.50
2022-12-08T03:25:55.142Z,12.12
2022-12-08T03:28:21.444Z,11.57
2022-12-08T03:30:47.841Z,11.67
2022-12-08T03:33:14.201Z,11.69
2022-12-08T03:35:40.509Z,11.84
2022-12-08T03:38:06.799Z,12.26
2022-12-08T03:40:33.120Z,12.57
2022-12-08T03:42:59.414Z,12.77
2022-12-08T03:45:25.705Z,12.49
2022-12-08T03:47:52.080Z,12.75
2022-12-08T03:50:18.382Z,12.89
2022-12-08T03:52:44.703Z,13.45
2022-12-08T03:55:11.020Z,13.01
2022-12-08T03:57:37.314Z,13.15
2022-12-08T04:00:03.940Z,13.22
2022-12-08T04:02:30.611Z,13.01
2022-12-08T04:04:56.965Z,12.62
2022-12-08T04:07:23.259Z,12.93
2022-12-08T04:09:49.584Z,13.01
2022-12-08T04:12:15.881Z,12.69
2022-12-08T04:14:42.176Z,12.94
2022-12-08T04:17:08.509Z,14.18
2022-12-08T04:19:34.808Z,14.34
2022-12-08T04:22:01.102Z,14.74
2022-12-08T04:24:27.444Z,14.70
2022-12-08T04:26:53.757Z,15.23
2022-12-08T04:29:20.063Z,15.20
2022-12-08T04:31:46.430Z,15.51
2022-12-08T04:34:12.785Z,15.64
2022-12-08T04:36:39.117Z,15.10
2022-12-08T04:39:05.432Z,15.05
2022-12-08T04:41:31.732Z,16.25
2022-12-08T04:43:58.026Z,16.57
2022-12-08T04:46:24.427Z,17.87
2022-12-08T04:48:50.785Z,17.26
2022-12-08T04:51:17.114Z,17.36
2022-12-08T04:53:46.460Z,17.52
2022-12-08T04:56:13.328Z,18.51
2022-12-08T04:58:39.633Z,18.85
2022-12-08T05:01:05.980Z,19.12
2022-12-08T05:03:32.329Z,18.53
2022-12-08T05:05:59.406Z,18.87
2022-12-08T05:08:26.846Z,18.62
2022-12-08T05:10:53.485Z,18.71
2022-12-08T05:13:19.818Z,19.22
2022-12-08T05:15:46.150Z,19.94
2022-12-08T05:18:12.441Z,19.08
2022-12-08T05:20:38.749Z,19.30
2022-12-08T05:23:05.069Z,19.68
2022-12-08T05:25:31.372Z,19.79
2022-12-08T05:28:17.746Z,19.91
2022-12-08T05:30:43.937Z,19.44
2022-12-08T05:33:10.213Z,19.02
2022-12-08T05:35:36.502Z,18.75
2022-12-08T05:38:02.821Z,18.11
2022-12-08T05:40:29.093Z,17.52
2022-12-08T05:42:55.379Z,17.87
2022-12-08T05:45:21.702Z,17.95
2022-12-08T05:47:48.031Z,18.53
2022-12-08T05:50:14.331Z,18.60
2022-12-08T05:52:40.655Z,18.51
2022-12-08T05:55:06.957Z,18.57
2022-12-08T05:57:33.256Z,17.23
2022-12-08T06:02:26.127Z,18.39
2022-12-08T06:04:52.477Z,18.08
2022-12-08T06:07:18.801Z,18.38
2022-12-08T06:09:45.100Z,17.74
2022-12-08T06:12:11.401Z,18.28
2022-12-08T06:14:37.810Z,18.52
2022-12-08T06:17:04.184Z,18.86
2022-12-08T06:19:30.527Z,18.77
2022-12-08T06:21:56.849Z,17.69
2022-12-08T06:24:23.156Z,18.09
2022-12-08T06:26:49.452Z,18.25
2022-12-08T06:29:15.783Z,19.13
2022-12-08T06:31:42.108Z,19.95
2022-12-08T06:34:08.422Z,20.04
2022-12-08T06:36:34.745Z,21.06
2022-12-08T06:39:01.028Z,20.42
2022-12-08T06:41:27.304Z,20.36
2022-12-08T06:43:53.615Z,20.68
2022-12-08T06:46:21.489Z,20.73
2022-12-08T06:48:47.824Z,21.86
2022-12-08T06:51:14.142Z,21.52
2022-12-08T06:53:40.427Z,20.19
2022-12-08T06:56:06.791Z,21.12
2022-12-08T06:58:33.103Z,21.05
2022-12-08T07:00:59.469Z,21.59
2022-12-08T07:03:25.808Z,21.08
2022-12-08T07:05:52.166Z,21.10
2022-12-08T07:08:18.531Z,21.66
2022-12-08T07:10:44.868Z,21.89
2022-12-08T07:13:11.202Z,21.36
2022-12-08T07:15:37.503Z,20.71
2022-12-08T07:18:03.798Z,20.78
2022-12-08T07:20:30.121Z,21.41
2022-12-08T07:22:56.428Z,22.05
2022-12-08T07:25:22.723Z,21.62
2022-12-08T07:27:49.044Z,21.54
2022-12-08T07:30:15.336Z,22.07
2022-12-08T07:32:41.636Z,22.27
2022-12-08T07:35:07.963Z,21.95
2022-12-08T07:37:34.258Z,20.83
2022-12-08T07:40:00.585Z,20.50
2022-12-08T07:42:26.913Z,20.74
2022-12-08T07:44:53.235Z,22.14
2022-12-08T07:47:19.531Z,21.38
2022-12-08T07:49:45.876Z,20.38
2022-12-08T07:52:12.171Z,20.78
2022-12-08T07:54:38.461Z,21.29
2022-12-08T07:57:04.780Z,20.77
2022-12-08T07:59:31.079Z,20.32
2022-12-08T08:02:22.388Z,20.65
2022-12-08T08:04:43.709Z,21.25
2022-12-08T08:07:10.027Z,20.85
2022-12-08T08:09:36.328Z,20.79
2022-12-08T08:12:29.495Z,20.92
2022-12-08T08:14:48.960Z,20.95
2022-12-08T08:17:15.389Z,20.62
2022-12-08T08:19:41.756Z,20.55
2022-12-08T08:22:08.049Z,20.79
2022-12-08T08:24:34.360Z,20.99
2022-12-08T08:27:00.659Z,21.67
2022-12-08T08:29:26.951Z,21.14
2022-12-08T08:31:53.276Z,21.63
2022-12-08T08:34:19.566Z,20.74
2022-12-08T08:36:45.875Z,18.56
2022-12-08T08:39:12.222Z,19.95
2022-12-08T08:41:38.538Z,20.48
2022-12-08T08:44:04.903Z,20.64
2022-12-08T08:46:31.314Z,20.16
2022-12-08T08:48:57.664Z,21.20
2022-12-08T08:51:23.969Z,21.86
2022-12-08T08:53:50.291Z,21.52
2022-12-08T08:56:16.580Z,21.75
2022-12-08T08:58:42.879Z,21.10
2022-12-08T09:03:00.488Z,17.70
2022-12-08T09:08:03.003Z,23.10
2022-12-08T09:10:29.488Z,23.28
2022-12-08T09:12:55.868Z,23.99
2022-12-08T09:15:22.488Z,24.80
2022-12-08T09:17:48.849Z,24.87
2022-12-08T09:20:15.203Z,25.93
2022-12-08T09:22:41.569Z,26.11
2022-12-08T09:25:08.616Z,26.39
2022-12-08T09:27:35.021Z,25.95
2022-12-08T09:30:01.710Z,26.60
2022-12-08T09:32:28.164Z,25.93
2022-12-08T09:34:54.532Z,27.12
2022-12-08T09:37:20.875Z,27.17
2022-12-08T09:39:47.241Z,26.77
2022-12-08T09:42:13.587Z,28.50
2022-12-08T09:44:39.958Z,26.86
2022-12-08T09:47:06.347Z,27.57
2022-12-08T09:49:32.870Z,27.95
2022-12-08T09:51:59.246Z,28.29
2022-12-08T09:54:25.631Z,27.42
2022-12-08T09:56:51.995Z,27.63
2022-12-08T09:59:18.379Z,28.03
2022-12-08T10:01:44.783Z,27.50
2022-12-08T10:04:11.181Z,27.09
2022-12-08T10:06:37.615Z,26.95
2022-12-08T10:09:03.951Z,27.14
2022-12-08T10:11:30.357Z,26.38
2022-12-08T10:13:56.741Z,26.10
2022-12-08T10:16:29.328Z,25.56
2022-12-08T10:18:56.299Z,26.59
2022-12-08T10:21:22.722Z,25.94
2022-12-08T10:23:49.063Z,26.48
2022-12-08T10:26:15.428Z,26.28
2022-12-08T10:28:45.193Z,25.89
2022-12-08T10:31:12.135Z,25.84
2022-12-08T10:33:38.597Z,26.05
2022-12-08T10:36:05.127Z,25.46
2022-12-08T10:38:31.485Z,25.90
2022-12-08T10:40:57.958Z,25.42
2022-12-08T10:43:24.339Z,24.98
2022-12-08T10:45:50.769Z,23.71
2022-12-08T10:48:17.171Z,24.33
2022-12-08T10:50:43.490Z,24.37
2022-12-08T10:53:09.825Z,25.08
2022-12-08T10:55:36.360Z,25.56
2022-12-08T10:58:02.715Z,24.87
2022-12-08T11:00:29.146Z,25.59
2022-12-08T11:02:55.840Z,25.37
2022-12-08T11:05:22.323Z,26.35
2022-12-08T11:07:48.717Z,25.94
2022-12-08T11:10:15.182Z,26.16
2022-12-08T11:12:41.503Z,24.81
2022-12-08T11:15:07.855Z,24.95
2022-12-08T11:17:34.224Z,25.93
2022-12-08T11:20:00.542Z,24.91
2022-12-08T11:22:26.970Z,26.44
2022-12-08T11:24:53.366Z,25.65
2022-12-08T11:27:19.680Z,25.60
2022-12-08T11:29:46.001Z,26.23
2022-12-08T11:32:12.404Z,26.51
2022-12-08T11:34:38.880Z,26.36
2022-12-08T11:37:08.018Z,25.79
2022-12-08T11:39:34.412Z,24.93
2022-12-08T11:42:00.796Z,25.19
2022-12-08T11:44:27.191Z,25.34
2022-12-08T11:46:53.571Z,25.18
2022-12-08T11:49:19.928Z,24.38
2022-12-08T11:51:46.279Z,23.94
2022-12-08T11:54:12.627Z,24.11
2022-12-08T11:56:38.993Z,24.15
2022-12-08T11:59:05.323Z,24.54
2022-12-08T12:01:31.685Z,24.20
2022-12-08T12:03:58.006Z,25.20
2022-12-08T12:06:46.372Z,24.80
2022-12-08T12:09:10.757Z,25.58
2022-12-08T12:11:37.100Z,24.85
2022-12-08T12:14:03.436Z,25.23
2022-12-08T12:16:29.906Z,25.09
2022-12-08T12:18:56.286Z,25.47
2022-12-08T12:21:24.034Z,25.84
2022-12-08T12:23:50.512Z,25.47
2022-12-08T12:26:17.058Z,25.49
2022-12-08T12:28:43.421Z,24.91
2022-12-08T12:31:09.943Z,25.11
2022-12-08T12:33:36.379Z,24.17
2022-12-08T12:36:05.770Z,24.04
2022-12-08T12:38:32.186Z,24.53
2022-12-08T12:40:58.540Z,24.44
2022-12-08T12:43:24.883Z,25.18
2022-12-08T12:45:51.479Z,24.06
2022-12-08T12:48:17.912Z,24.14
2022-12-08T12:50:44.265Z,23.88
2022-12-08T12:53:13.870Z,24.20
2022-12-08T12:55:40.394Z,23.70
2022-12-08T12:58:06.742Z,23.71
2022-12-08T13:00:33.209Z,24.62
2022-12-08T13:02:59.647Z,24.34
2022-12-08T13:05:26.115Z,23.46
2022-12-08T13:07:52.555Z,23.99
2022-12-08T13:10:19.104Z,23.73
2022-12-08T13:12:45.506Z,24.52
2022-12-08T13:15:11.865Z,25.17
2022-12-08T13:17:38.219Z,25.36
2022-12-08T13:20:04.977Z,24.32
2022-12-08T13:22:31.658Z,24.59
2022-12-08T13:24:58.057Z,24.98
2022-12-08T13:27:24.424Z,24.81
2022-12-08T13:30:01.365Z,24.42
2022-12-08T13:32:54.983Z,24.53
2022-12-08T13:35:20.278Z,23.63
2022-12-08T13:37:54.339Z,24.29
2022-12-08T13:40:21.071Z,23.80
2022-12-08T13:42:47.499Z,25.21
2022-12-08T13:46:04.365Z,24.67
2022-12-08T13:48:23.416Z,23.64
2022-12-08T13:59:05.717Z,23.86
2022-12-08T14:01:32.106Z,24.83
2022-12-08T14:04:33.757Z,24.77
2022-12-08T14:06:44.833Z,24.73
2022-12-08T14:09:11.494Z,24.90
2022-12-08T14:11:38.009Z,23.76
2022-12-08T14:14:04.358Z,24.29
2022-12-08T14:16:30.805Z,24.23
2022-12-08T14:18:57.182Z,24.34
2022-12-08T14:21:23.614Z,24.21
2022-12-08T14:23:49.980Z,24.63
2022-12-08T14:26:16.451Z,23.75
2022-12-08T14:28:45.055Z,23.43
2022-12-08T14:31:11.838Z,24.08
2022-12-08T14:33:38.211Z,24.29
2022-12-08T14:36:04.627Z,24.17
2022-12-08T14:38:31.102Z,24.95
2022-12-08T14:40:57.469Z,24.48
2022-12-08T14:43:23.822Z,24.64
2022-12-08T14:45:50.165Z,24.62
2022-12-08T14:48:16.516Z,24.98
2022-12-08T14:50:42.931Z,25.35
2022-12-08T14:53:09.287Z,24.97
2022-12-08T14:55:35.650Z,24.38
2022-12-08T14:58:02.055Z,24.77
2022-12-08T15:00:28.420Z,24.80
2022-12-08T15:02:54.756Z,24.07
2022-12-08T15:05:21.218Z,24.95
2022-12-08T15:07:47.662Z,25.12
2022-12-08T15:10:14.088Z,25.32
2022-12-08T15:12:40.477Z,25.57
2022-12-08T15:15:06.857Z,25.74
2022-12-08T15:17:33.192Z,25.07
2022-12-08T15:19:59.583Z,25.12
2022-12-08T15:22:25.969Z,25.13
2022-12-08T15:24:52.329Z,25.47
2022-12-08T15:27:18.756Z,26.06
2022-12-08T15:29:45.097Z,27.45
2022-12-08T15:32:11.499Z,30.91
2022-12-08T15:34:37.860Z,35.77
2022-12-08T15:37:04.213Z,27.94
2022-12-08T15:39:30.584Z,26.74
2022-12-08T15:41:57.008Z,26.56
2022-12-08T15:44:23.416Z,25.85
2022-12-08T15:46:49.846Z,25.79
2022-12-08T15:49:16.280Z,26.30
2022-12-08T15:51:42.693Z,25.81
2022-12-08T15:54:09.036Z,26.63
2022-12-08T15:56:45.308Z,26.43
2022-12-08T15:59:21.778Z,26.65
2022-12-08T16:01:48.325Z,27.76
2022-12-08T16:04:59.692Z,29.12
2022-12-08T16:09:47.470Z,28.48
2022-12-08T16:12:13.953Z,28.17
2022-12-08T16:15:47.049Z,28.38
2022-12-08T16:17:26.740Z,28.19
2022-12-08T16:19:53.170Z,29.60
2022-12-08T16:25:22.271Z,29.69
2022-12-08T16:30:35.798Z,33.70
2022-12-08T16:33:02.201Z,29.12
2022-12-08T16:35:28.603Z,31.82
2022-12-08T16:37:55.075Z,35.22
2022-12-08T16:40:21.486Z,32.85
2022-12-08T16:42:47.902Z,30.66
2022-12-08T16:45:14.343Z,30.71
2022-12-08T16:47:40.719Z,30.38
2022-12-08T16:50:07.081Z,29.46
2022-12-08T16:52:33.457Z,29.44
2022-12-08T16:54:59.851Z,28.43
2022-12-08T16:57:26.241Z,28.71
2022-12-08T16:59:52.598Z,29.13
2022-12-08T17:02:18.990Z,29.20
2022-12-08T17:04:45.509Z,29.01
2022-12-08T17:07:11.931Z,29.30
2022-12-08T17:09:38.274Z,29.98
2022-12-08T17:12:04.644Z,31.05
2022-12-08T17:14:31.042Z,33.00
2022-12-08T17:16:57.469Z,31.37
2022-12-08T17:19:23.907Z,32.09
2022-12-08T17:21:50.304Z,32.28
2022-12-08T17:24:21.789Z,31.84
2022-12-08T17:26:48.502Z,30.85
2022-12-08T17:29:14.935Z,31.30
2022-12-08T17:31:41.339Z,31.49
2022-12-08T17:34:09.250Z,36.66
2022-12-08T17:36:35.664Z,32.46
2022-12-08T17:39:01.978Z,29.53
2022-12-08T17:41:28.310Z,29.57
2022-12-08T17:43:54.704Z,28.80
2022-12-08T17:46:21.358Z,28.92
2022-12-08T17:48:49.453Z,29.14
2022-12-08T17:51:18.137Z,29.48
2022-12-08T17:53:44.492Z,29.18
2022-12-08T17:56:13.615Z,29.48
2022-12-08T17:58:40.042Z,28.94
2022-12-08T18:01:06.429Z,28.46
2022-12-08T18:03:32.788Z,28.95
2022-12-08T18:05:59.185Z,29.34
2022-12-08T18:08:25.602Z,30.09
2022-12-08T18:10:51.945Z,29.81
2022-12-08T18:13:18.346Z,29.33
2022-12-08T18:15:44.731Z,29.97
2022-12-08T18:18:11.133Z,29.88
2022-12-08T18:20:37.532Z,30.01
2022-12-08T18:23:03.885Z,30.81
2022-12-08T18:25:30.227Z,31.03
2022-12-08T18:27:56.638Z,30.53
2022-12-08T18:30:23.009Z,31.26
2022-12-08T18:32:54.180Z,30.49
2022-12-08T18:35:23.524Z,32.65
2022-12-08T18:37:49.920Z,30.64
2022-12-08T18:40:16.286Z,31.37
2022-12-08T18:42:42.677Z,31.30
2022-12-08T18:45:11.395Z,30.31
2022-12-08T18:47:37.762Z,30.69
2022-12-08T18:50:04.588Z,29.82
2022-12-08T18:52:32.487Z,30.71
2022-12-08T18:55:06.459Z,30.61
2022-12-08T18:57:35.972Z,31.66
2022-12-08T19:00:02.502Z,31.93
2022-12-08T19:02:31.285Z,31.71
2022-12-08T19:04:57.681Z,32.65
2022-12-08T19:07:24.070Z,33.66
2022-12-08T19:09:50.440Z,32.03
2022-12-08T19:12:16.821Z,30.06
2022-12-08T19:14:43.209Z,28.79
2022-12-08T19:17:09.556Z,30.38
2022-12-08T19:19:35.956Z,30.25
2022-12-08T19:22:02.368Z,32.36
2022-12-08T19:24:28.760Z,31.95
2022-12-08T19:26:55.135Z,30.79
2022-12-08T19:29:21.494Z,29.57
2022-12-08T19:31:47.969Z,29.37
2022-12-08T19:34:14.435Z,29.64
2022-12-08T19:36:40.777Z,29.75
2022-12-08T19:39:07.145Z,29.49
2022-12-08T19:41:33.575Z,31.54
2022-12-08T19:43:59.939Z,31.83
2022-12-08T19:46:26.428Z,29.78
2022-12-08T19:48:52.869Z,30.40
2022-12-08T19:51:19.236Z,30.01
2022-12-08T19:53:47.838Z,30.13
2022-12-08T19:56:17.082Z,30.88
2022-12-08T19:58:43.631Z,31.13
2022-12-08T20:01:11.445Z,30.50
2022-12-08T20:03:39.619Z,30.19
2022-12-08T20:06:06.187Z,30.64
2022-12-08T20:08:32.633Z,30.79
2022-12-08T20:10:59.126Z,29.97
2022-12-08T20:13:25.482Z,29.34
2022-12-08T20:15:51.877Z,30.56
2022-12-08T20:18:18.350Z,32.16
2022-12-08T20:20:44.734Z,32.04
2022-12-08T20:23:11.116Z,31.88
2022-12-08T20:25:37.733Z,30.57
2022-12-08T20:28:04.083Z,29.69
2022-12-08T20:30:30.484Z,29.67
2022-12-08T20:32:56.912Z,30.11
2022-12-08T20:35:23.280Z,30.63
2022-12-08T20:37:49.645Z,31.44
2022-12-08T20:40:16.022Z,31.35
2022-12-08T20:42:42.387Z,30.71
2022-12-08T20:45:09.139Z,30.12
2022-12-08T20:47:35.812Z,30.33
2022-12-08T20:50:02.278Z,30.03
2022-12-08T20:52:28.796Z,29.94
2022-12-08T20:54:55.217Z,30.14
2022-12-08T20:57:21.817Z,29.53
2022-12-08T20:59:48.334Z,30.58
2022-12-08T21:02:14.944Z,30.48
2022-12-08T21:04:41.432Z,31.54
2022-12-08T21:07:08.048Z,29.94
2022-12-08T21:09:34.566Z,29.73
2022-12-08T21:12:01.358Z,31.18
2022-12-08T21:14:27.909Z,32.29
2022-12-08T21:16:54.631Z,31.47
2022-12-08T21:19:21.772Z,32.42
2022-12-08T21:21:48.247Z,32.11
2022-12-08T21:24:14.743Z,31.60
2022-12-08T21:26:41.091Z,32.42
2022-12-08T21:29:07.467Z,31.22
2022-12-08T21:31:34.113Z,31.49
2022-12-08T21:34:00.598Z,31.62
2022-12-08T21:36:27.161Z,32.07
2022-12-08T21:38:53.713Z,33.43
2022-12-08T21:41:20.168Z,33.80
2022-12-08T21:43:46.625Z,32.18
2022-12-08T21:46:13.330Z,32.57
2022-12-08T21:48:39.813Z,33.16
2022-12-08T21:51:06.486Z,31.94
2022-12-08T21:53:33.003Z,32.55
2022-12-08T21:55:59.503Z,32.40
2022-12-08T21:58:25.944Z,32.68
2022-12-08T22:00:52.485Z,33.37
2022-12-08T22:03:19.020Z,32.96
2022-12-08T22:05:45.713Z,34.50
2022-12-08T22:08:13.916Z,32.18
2022-12-08T22:10:40.600Z,31.43
2022-12-08T22:13:07.239Z,31.28
2022-12-08T22:15:33.856Z,31.36
2022-12-08T22:18:00.369Z,31.54
2022-12-08T22:20:27.056Z,31.81
2022-12-08T22:22:53.532Z,31.86
2022-12-08T22:25:19.950Z,32.04
2022-12-08T22:27:46.324Z,32.33
2022-12-08T22:30:13.220Z,32.65
2022-12-08T22:32:40.042Z,32.74
2022-12-08T22:35:06.575Z,33.24
2022-12-08T22:37:33.194Z,33.25
2022-12-08T22:39:59.777Z,32.75
2022-12-08T22:42:26.137Z,32.57
2022-12-08T22:44:52.504Z,32.68
2022-12-08T22:47:18.842Z,32.12
2022-12-08T22:49:45.224Z,33.09
2022-12-08T22:52:11.885Z,32.67
2022-12-08T22:54:38.430Z,33.23
2022-12-08T22:57:04.782Z,33.31
2022-12-08T22:59:31.415Z,33.64
2022-12-08T23:01:57.777Z,33.09
2022-12-08T23:04:24.464Z,33.83
2022-12-08T23:06:51.170Z,33.64
2022-12-08T23:09:17.610Z,32.79
2022-12-08T23:11:44.209Z,33.14
2022-12-08T23:14:10.844Z,33.37
2022-12-08T23:16:37.424Z,33.21
2022-12-08T23:19:04.182Z,32.53
2022-12-08T23:21:30.716Z,32.56
2022-12-08T23:23:57.235Z,33.08
2022-12-08T23:26:23.820Z,33.01
2022-12-08T23:28:50.266Z,32.47
2022-12-08T23:31:16.918Z,33.92
2022-12-08T23:33:43.632Z,32.84
2022-12-08T23:36:10.084Z,34.03
2022-12-08T23:38:36.430Z,34.44
2022-12-08T23:41:02.950Z,35.05
2022-12-08T23:43:29.493Z,35.42
2022-12-08T23:45:56.024Z,35.74
2022-12-08T23:48:22.458Z,34.43
2022-12-08T23:50:49.091Z,35.00
2022-12-08T23:53:15.634Z,36.15
2022-12-08T23:55:42.072Z,37.10
2022-12-08T23:58:08.699Z,36.88
